LOG25Q EGPE-EGAC
Flight info
| Callsign | LOG25Q |
|---|---|
| Flight time | N/A |
| Altitude | 20000 |
| Route | GUSSI DCT NESDI N560 GOW DCT TRN P600 BLACA DCT MAGEE |
| Aircraft | AT76/M-SDFGIRY/S |
Departure
| Time | N/A |
|---|---|
| Airport | Inverness Airport (EGPE) |
Arrival
| Time | 2026-05-01 08:06 |
|---|---|
| Airport | George Best Belfast City Airport (EGAC) |
| Time | Latitude | Longitude | Altitude | Speed | Heading |
|---|---|---|---|---|---|
| 2026-05-01 07:23 | 56.43403 | -4.31349 | 20154 ft | 228 kts | 189° |
| 2026-05-01 07:23 | 56.40241 | -4.32097 | 20158 ft | 231 kts | 189° |
| 2026-05-01 07:24 | 56.38648 | -4.32476 | 20171 ft | 231 kts | 189° |
| 2026-05-01 07:24 | 56.37045 | -4.32858 | 20152 ft | 232 kts | 189° |
| 2026-05-01 07:24 | 56.35443 | -4.33236 | 20168 ft | 233 kts | 189° |
| 2026-05-01 07:24 | 56.33835 | -4.33617 | 20161 ft | 234 kts | 189° |
| 2026-05-01 07:25 | 56.32224 | -4.33999 | 20159 ft | 234 kts | 189° |
| 2026-05-01 07:25 | 56.30613 | -4.34376 | 20164 ft | 233 kts | 189° |
| 2026-05-01 07:25 | 56.29007 | -4.34753 | 20162 ft | 233 kts | 189° |
| 2026-05-01 07:25 | 56.27402 | -4.35137 | 20173 ft | 233 kts | 189° |
| 2026-05-01 07:26 | 56.25791 | -4.35521 | 20169 ft | 234 kts | 189° |
| 2026-05-01 07:26 | 56.24187 | -4.35899 | 20167 ft | 235 kts | 189° |
| 2026-05-01 07:26 | 56.22563 | -4.36280 | 20166 ft | 236 kts | 189° |
| 2026-05-01 07:26 | 56.20957 | -4.36663 | 20157 ft | 236 kts | 188° |
| 2026-05-01 07:27 | 56.19331 | -4.37048 | 20158 ft | 235 kts | 188° |
| 2026-05-01 07:27 | 56.17706 | -4.37426 | 20171 ft | 236 kts | 188° |
| 2026-05-01 07:27 | 56.16082 | -4.37803 | 20166 ft | 236 kts | 188° |
| 2026-05-01 07:27 | 56.14453 | -4.38183 | 20171 ft | 235 kts | 188° |
| 2026-05-01 07:28 | 56.12831 | -4.38563 | 20171 ft | 236 kts | 188° |
| 2026-05-01 07:28 | 56.11206 | -4.38944 | 20171 ft | 235 kts | 188° |
| 2026-05-01 07:28 | 56.09583 | -4.39325 | 20172 ft | 235 kts | 188° |
| 2026-05-01 07:28 | 56.07958 | -4.39705 | 20178 ft | 235 kts | 188° |
| 2026-05-01 07:29 | 56.06334 | -4.40085 | 20179 ft | 236 kts | 188° |
| 2026-05-01 07:29 | 56.04707 | -4.40466 | 20180 ft | 236 kts | 188° |
| 2026-05-01 07:29 | 56.03081 | -4.40845 | 20179 ft | 236 kts | 188° |
| 2026-05-01 07:29 | 56.01452 | -4.41223 | 20179 ft | 236 kts | 188° |
| 2026-05-01 07:30 | 55.99823 | -4.41602 | 20181 ft | 236 kts | 188° |
| 2026-05-01 07:30 | 55.98199 | -4.41979 | 20185 ft | 236 kts | 188° |
| 2026-05-01 07:30 | 55.96571 | -4.42357 | 20182 ft | 236 kts | 188° |
| 2026-05-01 07:30 | 55.94943 | -4.42736 | 20182 ft | 236 kts | 188° |
| 2026-05-01 07:31 | 55.93317 | -4.43113 | 20184 ft | 236 kts | 188° |
| 2026-05-01 07:31 | 55.88422 | -4.44246 | 20192 ft | 238 kts | 188° |
| 2026-05-01 07:32 | 55.85218 | -4.45427 | 20182 ft | 238 kts | 200° |
| 2026-05-01 07:32 | 55.83674 | -4.46500 | 20178 ft | 238 kts | 201° |
| 2026-05-01 07:33 | 55.80583 | -4.48603 | 20182 ft | 237 kts | 199° |
| 2026-05-01 07:33 | 55.79027 | -4.49559 | 20179 ft | 237 kts | 199° |
| 2026-05-01 07:33 | 55.75914 | -4.51464 | 20189 ft | 237 kts | 199° |
| 2026-05-01 07:34 | 55.74358 | -4.52415 | 20181 ft | 237 kts | 199° |
| 2026-05-01 07:34 | 55.71249 | -4.54318 | 20176 ft | 236 kts | 199° |
| 2026-05-01 07:34 | 55.69730 | -4.55244 | 20168 ft | 236 kts | 199° |
| 2026-05-01 07:35 | 55.68177 | -4.56191 | 20169 ft | 235 kts | 198° |
| 2026-05-01 07:35 | 55.66629 | -4.57138 | 20169 ft | 235 kts | 198° |
| 2026-05-01 07:35 | 55.65085 | -4.58078 | 20165 ft | 235 kts | 198° |
| 2026-05-01 07:35 | 55.63540 | -4.59016 | 20162 ft | 234 kts | 198° |
| 2026-05-01 07:36 | 55.61998 | -4.59956 | 20160 ft | 234 kts | 198° |
| 2026-05-01 07:36 | 55.60458 | -4.60890 | 20159 ft | 234 kts | 198° |
| 2026-05-01 07:36 | 55.58920 | -4.61827 | 20157 ft | 234 kts | 198° |
| 2026-05-01 07:36 | 55.57418 | -4.62735 | 20158 ft | 233 kts | 198° |
| 2026-05-01 07:37 | 55.54368 | -4.64585 | 20162 ft | 235 kts | 198° |
| 2026-05-01 07:37 | 55.52822 | -4.65520 | 20153 ft | 235 kts | 198° |
| 2026-05-01 07:37 | 55.51277 | -4.66452 | 20150 ft | 234 kts | 198° |
| 2026-05-01 07:38 | 55.49738 | -4.67383 | 20153 ft | 233 kts | 198° |
| 2026-05-01 07:38 | 55.48204 | -4.68308 | 20151 ft | 233 kts | 198° |
| 2026-05-01 07:38 | 55.45188 | -4.70129 | 20139 ft | 232 kts | 198° |
| 2026-05-01 07:39 | 55.43747 | -4.70993 | 20139 ft | 232 kts | 198° |
| 2026-05-01 07:39 | 55.42223 | -4.71913 | 20138 ft | 232 kts | 198° |
| 2026-05-01 07:39 | 55.39193 | -4.73734 | 20139 ft | 231 kts | 198° |
| 2026-05-01 07:40 | 55.37671 | -4.74645 | 20145 ft | 231 kts | 198° |
| 2026-05-01 07:40 | 55.36152 | -4.75559 | 20140 ft | 231 kts | 198° |
| 2026-05-01 07:40 | 55.34630 | -4.76472 | 20139 ft | 231 kts | 198° |
| 2026-05-01 07:40 | 55.33128 | -4.77374 | 20143 ft | 231 kts | 198° |
| 2026-05-01 07:41 | 55.31584 | -4.78299 | 20140 ft | 232 kts | 198° |
| 2026-05-01 07:41 | 55.30104 | -4.79309 | 20141 ft | 232 kts | 204° |
| 2026-05-01 07:41 | 55.27237 | -4.81931 | 20139 ft | 233 kts | 206° |
| 2026-05-01 07:42 | 55.25809 | -4.83275 | 20143 ft | 233 kts | 206° |
| 2026-05-01 07:42 | 55.24368 | -4.84575 | 20140 ft | 233 kts | 205° |
| 2026-05-01 07:42 | 55.22920 | -4.85854 | 20136 ft | 233 kts | 205° |
| 2026-05-01 07:42 | 55.21467 | -4.87133 | 20135 ft | 234 kts | 205° |
| 2026-05-01 07:43 | 55.20015 | -4.88407 | 20127 ft | 233 kts | 205° |
| 2026-05-01 07:43 | 55.18565 | -4.89690 | 20136 ft | 234 kts | 205° |
| 2026-05-01 07:43 | 55.15649 | -4.92235 | 20130 ft | 235 kts | 204° |
| 2026-05-01 07:44 | 55.12724 | -4.94792 | 20148 ft | 236 kts | 204° |
| 2026-05-01 07:44 | 55.09779 | -4.97349 | 20136 ft | 237 kts | 204° |
| 2026-05-01 07:45 | 55.08306 | -4.98641 | 20133 ft | 237 kts | 204° |
| 2026-05-01 07:45 | 55.06833 | -4.99926 | 20135 ft | 237 kts | 204° |
| 2026-05-01 07:45 | 55.05359 | -5.01207 | 20136 ft | 237 kts | 204° |
| 2026-05-01 07:45 | 55.03886 | -5.02490 | 20136 ft | 237 kts | 204° |
| 2026-05-01 07:46 | 55.02413 | -5.03768 | 20135 ft | 237 kts | 204° |
| 2026-05-01 07:46 | 55.01438 | -5.04616 | 20142 ft | 237 kts | 204° |
| 2026-05-01 07:46 | 54.98482 | -5.07177 | 20133 ft | 237 kts | 204° |
| 2026-05-01 07:47 | 54.97007 | -5.08456 | 20135 ft | 237 kts | 204° |
| 2026-05-01 07:47 | 54.95531 | -5.09732 | 20134 ft | 237 kts | 204° |
| 2026-05-01 07:47 | 54.94054 | -5.11011 | 20121 ft | 237 kts | 204° |
| 2026-05-01 07:47 | 54.92578 | -5.12286 | 20132 ft | 237 kts | 204° |
| 2026-05-01 07:48 | 54.89657 | -5.14810 | 20135 ft | 237 kts | 204° |
| 2026-05-01 07:48 | 54.88170 | -5.16097 | 19994 ft | 242 kts | 204° |
| 2026-05-01 07:48 | 54.86612 | -5.17428 | 19615 ft | 255 kts | 204° |
| 2026-05-01 07:49 | 54.84989 | -5.18821 | 19302 ft | 264 kts | 204° |
| 2026-05-01 07:49 | 54.81629 | -5.21706 | 18665 ft | 276 kts | 205° |
| 2026-05-01 07:49 | 54.79902 | -5.23190 | 18443 ft | 277 kts | 205° |
| 2026-05-01 07:50 | 54.78188 | -5.24656 | 18334 ft | 273 kts | 205° |
| 2026-05-01 07:50 | 54.74834 | -5.27526 | 18252 ft | 264 kts | 204° |
| 2026-05-01 07:50 | 54.73186 | -5.28936 | 18049 ft | 267 kts | 204° |
| 2026-05-01 07:51 | 54.71534 | -5.30350 | 17661 ft | 266 kts | 204° |
| 2026-05-01 07:51 | 54.69883 | -5.31755 | 17281 ft | 264 kts | 204° |
| 2026-05-01 07:51 | 54.68237 | -5.33158 | 16909 ft | 263 kts | 204° |
| 2026-05-01 07:52 | 54.64963 | -5.35947 | 16179 ft | 262 kts | 204° |
| 2026-05-01 07:52 | 54.63326 | -5.37336 | 15816 ft | 262 kts | 204° |
| 2026-05-01 07:52 | 54.61695 | -5.38720 | 15460 ft | 261 kts | 204° |
| 2026-05-01 07:53 | 54.58453 | -5.41472 | 14777 ft | 259 kts | 204° |
| 2026-05-01 07:53 | 54.56837 | -5.42840 | 14431 ft | 258 kts | 204° |
| 2026-05-01 07:53 | 54.55246 | -5.44186 | 14095 ft | 257 kts | 204° |
| 2026-05-01 07:53 | 54.53640 | -5.45546 | 13729 ft | 257 kts | 204° |
| 2026-05-01 07:54 | 54.50430 | -5.48254 | 12976 ft | 257 kts | 204° |
| 2026-05-01 07:55 | 54.45631 | -5.52301 | 11885 ft | 256 kts | 203° |
| 2026-05-01 07:55 | 54.42443 | -5.54985 | 11183 ft | 255 kts | 203° |
| 2026-05-01 07:56 | 54.40096 | -5.62858 | 10095 ft | 276 kts | 264° |
| 2026-05-01 07:56 | 54.40480 | -5.69520 | 9273 ft | 283 kts | 273° |
| 2026-05-01 07:57 | 54.40742 | -5.72871 | 8868 ft | 284 kts | 272° |
| 2026-05-01 07:57 | 54.41139 | -5.79552 | 8237 ft | 277 kts | 270° |
| 2026-05-01 07:58 | 54.41496 | -5.85881 | 7663 ft | 241 kts | 270° |
| 2026-05-01 07:58 | 54.41785 | -5.91124 | 6922 ft | 206 kts | 268° |
| 2026-05-01 07:59 | 54.42031 | -5.95791 | 6064 ft | 192 kts | 268° |
| 2026-05-01 07:59 | 54.42270 | -6.00259 | 5223 ft | 185 kts | 269° |
| 2026-05-01 08:00 | 54.43083 | -6.09118 | 4494 ft | 195 kts | 298° |
| 2026-05-01 08:01 | 54.46647 | -6.08950 | 3814 ft | 193 kts | 51° |
| 2026-05-01 08:01 | 54.47575 | -6.07299 | 3630 ft | 188 kts | 50° |
| 2026-05-01 08:01 | 54.48454 | -6.05753 | 3401 ft | 176 kts | 50° |
| 2026-05-01 08:02 | 54.50084 | -6.02891 | 2917 ft | 171 kts | 50° |
| 2026-05-01 08:02 | 54.50914 | -6.01444 | 2622 ft | 170 kts | 51° |
| 2026-05-01 08:03 | 54.52444 | -5.98842 | 2196 ft | 136 kts | 50° |
| 2026-05-01 08:03 | 54.53123 | -5.97817 | 2007 ft | 124 kts | 50° |
| 2026-05-01 08:03 | 54.54561 | -5.95808 | 1631 ft | 147 kts | 40° |
| 2026-05-01 08:04 | 54.56292 | -5.93884 | 1232 ft | 143 kts | 39° |
| 2026-05-01 08:04 | 54.57822 | -5.92019 | 852 ft | 131 kts | 41° |
| 2026-05-01 08:05 | 54.59253 | -5.90286 | 510 ft | 123 kts | 36° |
| 2026-05-01 08:05 | 54.59947 | -5.89489 | 367 ft | 119 kts | 35° |
| 2026-05-01 08:05 | 54.60615 | -5.88693 | 179 ft | 114 kts | 36° |
| 2026-05-01 08:06 | 54.61695 | -5.87387 | 17 ft | 21 kts | 33° |
| 2026-05-01 08:06 | 54.61811 | -5.87120 | 15 ft | 10 kts | 123° |
| 2026-05-01 08:07 | 54.61724 | -5.86999 | 18 ft | 10 kts | 198° |
| 2026-05-01 08:07 | 54.61610 | -5.87129 | 18 ft | 9 kts | 217° |
| 2026-05-01 08:08 | 54.61558 | -5.87192 | 18 ft | 9 kts | 214° |
| 2026-05-01 08:08 | 54.61466 | -5.87280 | 19 ft | 5 kts | 170° |
| 2026-05-01 08:09 | 54.61434 | -5.87223 | 18 ft | 1 kts | 124° |
| 2026-05-01 08:09 | 54.61432 | -5.87218 | 18 ft | 0 kts | 124° |